sensor_id;sensor_type;location;lat;lon;timestamp;P1;durP1;ratioP1;P2;durP2;ratioP2
15281;SDS011;7742;44.320;19.820;2024-01-30T00:01:50;26.23;;;24.00;;
15281;SDS011;7742;44.320;19.820;2024-01-30T00:04:17;26.08;;;23.77;;
15281;SDS011;7742;44.320;19.820;2024-01-30T00:06:45;25.23;;;23.10;;
15281;SDS011;7742;44.320;19.820;2024-01-30T00:09:12;25.67;;;23.10;;
15281;SDS011;7742;44.320;19.820;2024-01-30T00:11:39;24.40;;;22.23;;
15281;SDS011;7742;44.320;19.820;2024-01-30T00:14:07;25.50;;;23.20;;
15281;SDS011;7742;44.320;19.820;2024-01-30T00:16:46;25.20;;;23.00;;
15281;SDS011;7742;44.320;19.820;2024-01-30T00:19:13;25.85;;;23.50;;
15281;SDS011;7742;44.320;19.820;2024-01-30T00:21:40;35.50;;;31.70;;
15281;SDS011;7742;44.320;19.820;2024-01-30T00:24:10;26.90;;;24.50;;
15281;SDS011;7742;44.320;19.820;2024-01-30T00:29:38;33.27;;;30.07;;
15281;SDS011;7742;44.320;19.820;2024-01-30T00:32:07;40.07;;;35.83;;
15281;SDS011;7742;44.320;19.820;2024-01-30T00:34:34;42.92;;;37.83;;
15281;SDS011;7742;44.320;19.820;2024-01-30T00:37:05;34.40;;;31.00;;
15281;SDS011;7742;44.320;19.820;2024-01-30T00:39:35;31.08;;;27.98;;
15281;SDS011;7742;44.320;19.820;2024-01-30T00:42:03;35.17;;;31.60;;
15281;SDS011;7742;44.320;19.820;2024-01-30T00:44:30;29.85;;;27.17;;
15281;SDS011;7742;44.320;19.820;2024-01-30T00:47:04;28.85;;;26.30;;
15281;SDS011;7742;44.320;19.820;2024-01-30T00:49:33;29.13;;;26.52;;
15281;SDS011;7742;44.320;19.820;2024-01-30T00:52:06;31.67;;;28.58;;
15281;SDS011;7742;44.320;19.820;2024-01-30T00:54:40;29.38;;;26.65;;
15281;SDS011;7742;44.320;19.820;2024-01-30T00:57:07;23.98;;;21.65;;
15281;SDS011;7742;44.320;19.820;2024-01-30T01:02:33;22.85;;;20.92;;
15281;SDS011;7742;44.320;19.820;2024-01-30T01:05:02;24.75;;;22.65;;
15281;SDS011;7742;44.320;19.820;2024-01-30T01:07:30;24.00;;;21.90;;
15281;SDS011;7742;44.320;19.820;2024-01-30T01:09:59;24.30;;;22.20;;
15281;SDS011;7742;44.320;19.820;2024-01-30T01:12:31;24.35;;;22.17;;
15281;SDS011;7742;44.320;19.820;2024-01-30T01:15:26;25.10;;;22.98;;
15281;SDS011;7742;44.320;19.820;2024-01-30T01:17:56;24.40;;;22.42;;
15281;SDS011;7742;44.320;19.820;2024-01-30T01:20:30;24.13;;;22.08;;
15281;SDS011;7742;44.320;19.820;2024-01-30T01:22:58;23.75;;;21.65;;
15281;SDS011;7742;44.320;19.820;2024-01-30T01:25:25;23.00;;;21.00;;
15281;SDS011;7742;44.320;19.820;2024-01-30T01:27:52;22.23;;;20.42;;
15281;SDS011;7742;44.320;19.820;2024-01-30T01:30:41;22.27;;;20.35;;
15281;SDS011;7742;44.320;19.820;2024-01-30T01:33:08;21.55;;;19.83;;
15281;SDS011;7742;44.320;19.820;2024-01-30T01:35:42;22.00;;;20.02;;
15281;SDS011;7742;44.320;19.820;2024-01-30T01:38:10;21.02;;;19.40;;
15281;SDS011;7742;44.320;19.820;2024-01-30T01:40:37;25.25;;;23.08;;
15281;SDS011;7742;44.320;19.820;2024-01-30T01:45:51;21.77;;;20.05;;
15281;SDS011;7742;44.320;19.820;2024-01-30T01:48:18;22.08;;;20.17;;
15281;SDS011;7742;44.320;19.820;2024-01-30T01:53:32;38.70;;;34.85;;
15281;SDS011;7742;44.320;19.820;2024-01-30T01:56:00;39.40;;;35.45;;
15281;SDS011;7742;44.320;19.820;2024-01-30T01:58:27;42.45;;;38.13;;
15281;SDS011;7742;44.320;19.820;2024-01-30T02:00:58;49.17;;;43.97;;
15281;SDS011;7742;44.320;19.820;2024-01-30T02:03:25;38.80;;;35.10;;
15281;SDS011;7742;44.320;19.820;2024-01-30T02:05:52;28.02;;;25.48;;
15281;SDS011;7742;44.320;19.820;2024-01-30T02:08:20;23.45;;;21.42;;
15281;SDS011;7742;44.320;19.820;2024-01-30T02:10:48;22.02;;;20.23;;
15281;SDS011;7742;44.320;19.820;2024-01-30T02:13:16;21.38;;;19.70;;
15281;SDS011;7742;44.320;19.820;2024-01-30T02:15:43;23.98;;;22.05;;
15281;SDS011;7742;44.320;19.820;2024-01-30T02:18:10;21.13;;;19.52;;
15281;SDS011;7742;44.320;19.820;2024-01-30T02:20:37;21.17;;;19.38;;
15281;SDS011;7742;44.320;19.820;2024-01-30T02:23:06;22.63;;;20.73;;
15281;SDS011;7742;44.320;19.820;2024-01-30T02:25:40;23.15;;;21.33;;
15281;SDS011;7742;44.320;19.820;2024-01-30T02:28:09;23.00;;;21.05;;
15281;SDS011;7742;44.320;19.820;2024-01-30T02:30:37;24.00;;;21.92;;
15281;SDS011;7742;44.320;19.820;2024-01-30T02:33:04;23.67;;;21.67;;
15281;SDS011;7742;44.320;19.820;2024-01-30T02:35:31;21.92;;;20.23;;
15281;SDS011;7742;44.320;19.820;2024-01-30T02:38:09;23.05;;;21.35;;
15281;SDS011;7742;44.320;19.820;2024-01-30T02:40:36;24.60;;;22.67;;
15281;SDS011;7742;44.320;19.820;2024-01-30T02:43:03;23.75;;;21.90;;
15281;SDS011;7742;44.320;19.820;2024-01-30T02:45:30;23.48;;;21.38;;
15281;SDS011;7742;44.320;19.820;2024-01-30T02:47:57;24.98;;;22.85;;
15281;SDS011;7742;44.320;19.820;2024-01-30T02:50:24;24.42;;;22.52;;
15281;SDS011;7742;44.320;19.820;2024-01-30T02:52:52;23.13;;;21.17;;
15281;SDS011;7742;44.320;19.820;2024-01-30T02:55:22;22.17;;;20.38;;
15281;SDS011;7742;44.320;19.820;2024-01-30T02:57:49;23.17;;;21.33;;
15281;SDS011;7742;44.320;19.820;2024-01-30T03:00:19;22.00;;;20.17;;
15281;SDS011;7742;44.320;19.820;2024-01-30T03:02:46;23.05;;;21.27;;
15281;SDS011;7742;44.320;19.820;2024-01-30T03:05:17;23.35;;;21.55;;
15281;SDS011;7742;44.320;19.820;2024-01-30T03:07:44;22.95;;;20.80;;
15281;SDS011;7742;44.320;19.820;2024-01-30T03:10:11;22.40;;;20.50;;
15281;SDS011;7742;44.320;19.820;2024-01-30T03:12:39;23.35;;;21.45;;
15281;SDS011;7742;44.320;19.820;2024-01-30T03:20:59;21.77;;;19.98;;
15281;SDS011;7742;44.320;19.820;2024-01-30T03:23:26;22.90;;;21.02;;
15281;SDS011;7742;44.320;19.820;2024-01-30T03:29:07;22.02;;;20.20;;
15281;SDS011;7742;44.320;19.820;2024-01-30T03:31:34;21.83;;;20.02;;
15281;SDS011;7742;44.320;19.820;2024-01-30T03:34:01;21.33;;;19.75;;
15281;SDS011;7742;44.320;19.820;2024-01-30T03:36:28;22.98;;;20.98;;
15281;SDS011;7742;44.320;19.820;2024-01-30T03:38:58;21.77;;;20.05;;
15281;SDS011;7742;44.320;19.820;2024-01-30T03:41:25;22.15;;;20.13;;
15281;SDS011;7742;44.320;19.820;2024-01-30T03:46:56;23.63;;;21.63;;
15281;SDS011;7742;44.320;19.820;2024-01-30T03:49:27;23.83;;;22.00;;
15281;SDS011;7742;44.320;19.820;2024-01-30T03:51:54;23.52;;;21.52;;
15281;SDS011;7742;44.320;19.820;2024-01-30T03:54:25;24.02;;;22.13;;
15281;SDS011;7742;44.320;19.820;2024-01-30T03:56:52;23.23;;;21.42;;
15281;SDS011;7742;44.320;19.820;2024-01-30T03:59:19;22.95;;;21.05;;
15281;SDS011;7742;44.320;19.820;2024-01-30T04:01:50;23.08;;;21.17;;
15281;SDS011;7742;44.320;19.820;2024-01-30T04:07:10;22.80;;;21.10;;
15281;SDS011;7742;44.320;19.820;2024-01-30T04:09:38;23.38;;;21.55;;
15281;SDS011;7742;44.320;19.820;2024-01-30T04:12:05;22.33;;;20.52;;
15281;SDS011;7742;44.320;19.820;2024-01-30T04:14:32;24.30;;;22.40;;
15281;SDS011;7742;44.320;19.820;2024-01-30T04:16:59;23.95;;;21.85;;
15281;SDS011;7742;44.320;19.820;2024-01-30T04:19:37;23.60;;;21.52;;
15281;SDS011;7742;44.320;19.820;2024-01-30T04:22:04;22.65;;;20.52;;
15281;SDS011;7742;44.320;19.820;2024-01-30T04:24:33;24.20;;;22.10;;
15281;SDS011;7742;44.320;19.820;2024-01-30T04:26:59;22.73;;;20.92;;
15281;SDS011;7742;44.320;19.820;2024-01-30T04:29:26;24.50;;;22.42;;
15281;SDS011;7742;44.320;19.820;2024-01-30T04:31:53;24.90;;;22.70;;
15281;SDS011;7742;44.320;19.820;2024-01-30T04:34:20;23.73;;;21.83;;
15281;SDS011;7742;44.320;19.820;2024-01-30T04:36:57;23.33;;;21.42;;
15281;SDS011;7742;44.320;19.820;2024-01-30T04:39:29;23.83;;;21.73;;
15281;SDS011;7742;44.320;19.820;2024-01-30T04:44:40;24.25;;;22.15;;
15281;SDS011;7742;44.320;19.820;2024-01-30T04:47:07;23.98;;;22.00;;
15281;SDS011;7742;44.320;19.820;2024-01-30T04:52:59;23.40;;;21.35;;
15281;SDS011;7742;44.320;19.820;2024-01-30T04:55:26;24.15;;;22.05;;
15281;SDS011;7742;44.320;19.820;2024-01-30T04:57:53;24.27;;;22.08;;
15281;SDS011;7742;44.320;19.820;2024-01-30T05:00:21;23.73;;;21.73;;
15281;SDS011;7742;44.320;19.820;2024-01-30T05:02:48;24.70;;;22.50;;
15281;SDS011;7742;44.320;19.820;2024-01-30T05:05:15;23.35;;;21.38;;
15281;SDS011;7742;44.320;19.820;2024-01-30T05:07:43;23.73;;;21.80;;
15281;SDS011;7742;44.320;19.820;2024-01-30T05:10:10;23.63;;;21.52;;
15281;SDS011;7742;44.320;19.820;2024-01-30T05:12:38;23.63;;;21.52;;
15281;SDS011;7742;44.320;19.820;2024-01-30T05:15:05;24.20;;;22.20;;
15281;SDS011;7742;44.320;19.820;2024-01-30T05:17:34;24.27;;;22.17;;
15281;SDS011;7742;44.320;19.820;2024-01-30T05:20:01;25.20;;;23.08;;
15281;SDS011;7742;44.320;19.820;2024-01-30T05:22:30;25.38;;;23.20;;
15281;SDS011;7742;44.320;19.820;2024-01-30T05:24:57;24.75;;;22.52;;
15281;SDS011;7742;44.320;19.820;2024-01-30T05:27:24;24.35;;;22.35;;
15281;SDS011;7742;44.320;19.820;2024-01-30T05:29:51;24.23;;;22.23;;
15281;SDS011;7742;44.320;19.820;2024-01-30T05:32:18;24.38;;;22.08;;
15281;SDS011;7742;44.320;19.820;2024-01-30T05:34:46;24.42;;;22.25;;
15281;SDS011;7742;44.320;19.820;2024-01-30T05:37:15;23.65;;;21.80;;
15281;SDS011;7742;44.320;19.820;2024-01-30T05:39:43;23.25;;;21.27;;
15281;SDS011;7742;44.320;19.820;2024-01-30T05:42:10;22.88;;;21.08;;
15281;SDS011;7742;44.320;19.820;2024-01-30T05:44:37;22.25;;;20.45;;
15281;SDS011;7742;44.320;19.820;2024-01-30T05:47:04;23.92;;;21.83;;
15281;SDS011;7742;44.320;19.820;2024-01-30T05:49:31;25.58;;;23.58;;
15281;SDS011;7742;44.320;19.820;2024-01-30T05:51:59;25.35;;;22.98;;
15281;SDS011;7742;44.320;19.820;2024-01-30T05:54:26;24.83;;;22.77;;
15281;SDS011;7742;44.320;19.820;2024-01-30T05:56:53;24.33;;;22.08;;
15281;SDS011;7742;44.320;19.820;2024-01-30T05:59:20;26.30;;;24.10;;
15281;SDS011;7742;44.320;19.820;2024-01-30T06:01:47;25.17;;;23.05;;
15281;SDS011;7742;44.320;19.820;2024-01-30T06:04:14;24.38;;;22.38;;
15281;SDS011;7742;44.320;19.820;2024-01-30T06:06:41;24.02;;;22.02;;
15281;SDS011;7742;44.320;19.820;2024-01-30T06:09:10;26.58;;;24.45;;
15281;SDS011;7742;44.320;19.820;2024-01-30T06:11:38;23.30;;;21.50;;
15281;SDS011;7742;44.320;19.820;2024-01-30T06:14:05;23.80;;;21.80;;
15281;SDS011;7742;44.320;19.820;2024-01-30T06:16:32;22.40;;;20.50;;
15281;SDS011;7742;44.320;19.820;2024-01-30T06:18:59;24.30;;;22.30;;
15281;SDS011;7742;44.320;19.820;2024-01-30T06:21:26;23.90;;;21.90;;
15281;SDS011;7742;44.320;19.820;2024-01-30T06:23:53;22.35;;;20.48;;
15281;SDS011;7742;44.320;19.820;2024-01-30T06:26:21;23.33;;;21.17;;
15281;SDS011;7742;44.320;19.820;2024-01-30T06:28:48;24.27;;;22.15;;
15281;SDS011;7742;44.320;19.820;2024-01-30T06:31:15;28.25;;;25.52;;
15281;SDS011;7742;44.320;19.820;2024-01-30T06:33:43;32.33;;;28.85;;
15281;SDS011;7742;44.320;19.820;2024-01-30T06:36:11;31.42;;;28.27;;
15281;SDS011;7742;44.320;19.820;2024-01-30T06:38:38;31.13;;;27.85;;
15281;SDS011;7742;44.320;19.820;2024-01-30T06:41:05;33.75;;;30.30;;
15281;SDS011;7742;44.320;19.820;2024-01-30T06:43:33;34.92;;;31.63;;
15281;SDS011;7742;44.320;19.820;2024-01-30T06:46:00;46.45;;;38.92;;
15281;SDS011;7742;44.320;19.820;2024-01-30T06:48:27;37.25;;;33.38;;
15281;SDS011;7742;44.320;19.820;2024-01-30T06:50:54;31.08;;;28.08;;
15281;SDS011;7742;44.320;19.820;2024-01-30T06:53:22;32.13;;;29.20;;
15281;SDS011;7742;44.320;19.820;2024-01-30T06:55:49;28.85;;;26.33;;
15281;SDS011;7742;44.320;19.820;2024-01-30T06:58:16;32.53;;;29.40;;
15281;SDS011;7742;44.320;19.820;2024-01-30T07:00:45;27.88;;;25.20;;
15281;SDS011;7742;44.320;19.820;2024-01-30T07:03:12;28.08;;;25.48;;
15281;SDS011;7742;44.320;19.820;2024-01-30T07:05:39;28.63;;;25.67;;
15281;SDS011;7742;44.320;19.820;2024-01-30T07:08:06;30.10;;;27.20;;
15281;SDS011;7742;44.320;19.820;2024-01-30T07:10:33;29.35;;;26.38;;
15281;SDS011;7742;44.320;19.820;2024-01-30T07:13:00;29.40;;;26.80;;
15281;SDS011;7742;44.320;19.820;2024-01-30T07:15:27;28.88;;;26.30;;
15281;SDS011;7742;44.320;19.820;2024-01-30T07:17:55;29.58;;;26.88;;
15281;SDS011;7742;44.320;19.820;2024-01-30T07:20:22;30.25;;;27.38;;
15281;SDS011;7742;44.320;19.820;2024-01-30T07:22:49;30.45;;;27.45;;
15281;SDS011;7742;44.320;19.820;2024-01-30T07:25:17;25.67;;;23.40;;
15281;SDS011;7742;44.320;19.820;2024-01-30T07:27:44;26.80;;;24.50;;
15281;SDS011;7742;44.320;19.820;2024-01-30T07:30:11;25.00;;;23.00;;
15281;SDS011;7742;44.320;19.820;2024-01-30T07:32:38;25.27;;;22.97;;
15281;SDS011;7742;44.320;19.820;2024-01-30T07:35:06;28.07;;;25.77;;
15281;SDS011;7742;44.320;19.820;2024-01-30T07:37:33;27.13;;;24.60;;
15281;SDS011;7742;44.320;19.820;2024-01-30T07:40:01;27.90;;;25.50;;
15281;SDS011;7742;44.320;19.820;2024-01-30T07:42:28;26.20;;;23.90;;
15281;SDS011;7742;44.320;19.820;2024-01-30T07:44:55;24.73;;;22.57;;
15281;SDS011;7742;44.320;19.820;2024-01-30T07:47:22;25.30;;;23.10;;
15281;SDS011;7742;44.320;19.820;2024-01-30T07:49:49;24.83;;;22.63;;
15281;SDS011;7742;44.320;19.820;2024-01-30T07:52:18;25.00;;;22.70;;
15281;SDS011;7742;44.320;19.820;2024-01-30T07:54:45;24.37;;;22.37;;
15281;SDS011;7742;44.320;19.820;2024-01-30T07:57:11;24.23;;;22.23;;
15281;SDS011;7742;44.320;19.820;2024-01-30T07:59:38;24.80;;;22.70;;
15281;SDS011;7742;44.320;19.820;2024-01-30T08:02:05;23.57;;;21.77;;
15281;SDS011;7742;44.320;19.820;2024-01-30T08:04:33;23.40;;;21.57;;
15281;SDS011;7742;44.320;19.820;2024-01-30T08:07:00;24.67;;;22.57;;
15281;SDS011;7742;44.320;19.820;2024-01-30T08:09:28;23.27;;;21.27;;
15281;SDS011;7742;44.320;19.820;2024-01-30T08:11:55;23.63;;;21.73;;
15281;SDS011;7742;44.320;19.820;2024-01-30T08:14:22;24.10;;;22.00;;
15281;SDS011;7742;44.320;19.820;2024-01-30T08:16:49;24.70;;;22.50;;
15281;SDS011;7742;44.320;19.820;2024-01-30T08:19:16;21.47;;;19.57;;
15281;SDS011;7742;44.320;19.820;2024-01-30T08:21:43;23.00;;;21.07;;
15281;SDS011;7742;44.320;19.820;2024-01-30T08:24:10;22.60;;;20.73;;
15281;SDS011;7742;44.320;19.820;2024-01-30T08:26:39;23.70;;;21.80;;
15281;SDS011;7742;44.320;19.820;2024-01-30T08:29:06;21.20;;;19.50;;
15281;SDS011;7742;44.320;19.820;2024-01-30T08:31:33;24.50;;;22.30;;
15281;SDS011;7742;44.320;19.820;2024-01-30T08:34:00;25.03;;;23.03;;
15281;SDS011;7742;44.320;19.820;2024-01-30T08:36:27;24.37;;;22.37;;
15281;SDS011;7742;44.320;19.820;2024-01-30T08:38:54;23.43;;;21.53;;
15281;SDS011;7742;44.320;19.820;2024-01-30T08:41:21;23.03;;;21.03;;
15281;SDS011;7742;44.320;19.820;2024-01-30T08:43:49;23.37;;;21.53;;
15281;SDS011;7742;44.320;19.820;2024-01-30T08:46:17;22.23;;;20.53;;
15281;SDS011;7742;44.320;19.820;2024-01-30T08:48:44;22.00;;;20.30;;
15281;SDS011;7742;44.320;19.820;2024-01-30T08:51:11;25.80;;;23.70;;
15281;SDS011;7742;44.320;19.820;2024-01-30T08:53:39;24.43;;;22.53;;
15281;SDS011;7742;44.320;19.820;2024-01-30T08:56:06;26.67;;;24.57;;
15281;SDS011;7742;44.320;19.820;2024-01-30T08:58:33;23.57;;;21.77;;
15281;SDS011;7742;44.320;19.820;2024-01-30T09:01:02;23.70;;;21.90;;
15281;SDS011;7742;44.320;19.820;2024-01-30T09:03:30;25.70;;;23.70;;
15281;SDS011;7742;44.320;19.820;2024-01-30T09:05:57;24.47;;;22.50;;
15281;SDS011;7742;44.320;19.820;2024-01-30T09:08:24;26.13;;;24.10;;
15281;SDS011;7742;44.320;19.820;2024-01-30T09:10:53;28.17;;;25.87;;
15281;SDS011;7742;44.320;19.820;2024-01-30T09:13:20;26.93;;;24.77;;
15281;SDS011;7742;44.320;19.820;2024-01-30T09:15:47;24.87;;;22.53;;
15281;SDS011;7742;44.320;19.820;2024-01-30T09:18:15;27.60;;;25.17;;
15281;SDS011;7742;44.320;19.820;2024-01-30T09:20:42;26.20;;;23.90;;
15281;SDS011;7742;44.320;19.820;2024-01-30T09:23:10;27.33;;;25.10;;
15281;SDS011;7742;44.320;19.820;2024-01-30T09:25:37;27.40;;;25.20;;
15281;SDS011;7742;44.320;19.820;2024-01-30T09:28:05;25.77;;;23.57;;
15281;SDS011;7742;44.320;19.820;2024-01-30T09:30:32;28.70;;;26.10;;
15281;SDS011;7742;44.320;19.820;2024-01-30T09:32:59;23.87;;;21.97;;
15281;SDS011;7742;44.320;19.820;2024-01-30T09:35:28;27.53;;;25.23;;
15281;SDS011;7742;44.320;19.820;2024-01-30T09:37:55;27.93;;;25.53;;
15281;SDS011;7742;44.320;19.820;2024-01-30T09:40:24;23.60;;;21.60;;
15281;SDS011;7742;44.320;19.820;2024-01-30T09:42:52;25.80;;;23.60;;
15281;SDS011;7742;44.320;19.820;2024-01-30T09:45:19;25.50;;;23.33;;
15281;SDS011;7742;44.320;19.820;2024-01-30T09:47:46;23.47;;;21.57;;
15281;SDS011;7742;44.320;19.820;2024-01-30T09:50:13;22.80;;;20.93;;
15281;SDS011;7742;44.320;19.820;2024-01-30T09:52:43;22.40;;;20.60;;
15281;SDS011;7742;44.320;19.820;2024-01-30T09:55:11;21.53;;;19.93;;
15281;SDS011;7742;44.320;19.820;2024-01-30T09:57:41;21.20;;;19.67;;
15281;SDS011;7742;44.320;19.820;2024-01-30T10:00:08;23.00;;;21.33;;
15281;SDS011;7742;44.320;19.820;2024-01-30T10:02:36;19.33;;;17.93;;
15281;SDS011;7742;44.320;19.820;2024-01-30T10:05:04;21.07;;;19.47;;
15281;SDS011;7742;44.320;19.820;2024-01-30T10:07:31;20.03;;;18.53;;
15281;SDS011;7742;44.320;19.820;2024-01-30T10:09:59;18.90;;;17.53;;
15281;SDS011;7742;44.320;19.820;2024-01-30T10:12:27;19.97;;;18.40;;
15281;SDS011;7742;44.320;19.820;2024-01-30T10:14:55;19.20;;;17.73;;
15281;SDS011;7742;44.320;19.820;2024-01-30T10:17:24;18.50;;;17.20;;
15281;SDS011;7742;44.320;19.820;2024-01-30T10:19:51;20.70;;;19.30;;
15281;SDS011;7742;44.320;19.820;2024-01-30T10:22:18;19.03;;;17.73;;
15281;SDS011;7742;44.320;19.820;2024-01-30T10:24:46;21.13;;;19.40;;
15281;SDS011;7742;44.320;19.820;2024-01-30T10:27:14;19.93;;;18.57;;
15281;SDS011;7742;44.320;19.820;2024-01-30T10:29:41;20.93;;;19.53;;
15281;SDS011;7742;44.320;19.820;2024-01-30T10:32:08;19.93;;;18.37;;
15281;SDS011;7742;44.320;19.820;2024-01-30T10:34:36;20.90;;;19.47;;
15281;SDS011;7742;44.320;19.820;2024-01-30T10:40:17;19.07;;;17.60;;
15281;SDS011;7742;44.320;19.820;2024-01-30T10:42:56;17.93;;;16.73;;
15281;SDS011;7742;44.320;19.820;2024-01-30T10:45:37;20.33;;;18.80;;
15281;SDS011;7742;44.320;19.820;2024-01-30T10:50:52;18.57;;;17.27;;
15281;SDS011;7742;44.320;19.820;2024-01-30T10:53:24;18.57;;;17.17;;
15281;SDS011;7742;44.320;19.820;2024-01-30T10:56:01;19.90;;;18.40;;
15281;SDS011;7742;44.320;19.820;2024-01-30T10:58:37;18.20;;;16.80;;
15281;SDS011;7742;44.320;19.820;2024-01-30T11:01:12;18.50;;;17.17;;
15281;SDS011;7742;44.320;19.820;2024-01-30T11:03:40;16.87;;;15.67;;
15281;SDS011;7742;44.320;19.820;2024-01-30T11:06:10;17.70;;;16.50;;
15281;SDS011;7742;44.320;19.820;2024-01-30T11:08:39;14.33;;;13.43;;
15281;SDS011;7742;44.320;19.820;2024-01-30T11:11:08;13.57;;;12.67;;
15281;SDS011;7742;44.320;19.820;2024-01-30T11:13:42;13.83;;;13.03;;
15281;SDS011;7742;44.320;19.820;2024-01-30T11:17:50;17.20;;;16.00;;
15281;SDS011;7742;44.320;19.820;2024-01-30T11:19:47;16.20;;;15.10;;
15281;SDS011;7742;44.320;19.820;2024-01-30T11:37:57;15.07;;;14.17;;
15281;SDS011;7742;44.320;19.820;2024-01-30T11:43:31;16.70;;;15.50;;
15281;SDS011;7742;44.320;19.820;2024-01-30T11:46:01;17.10;;;15.90;;
15281;SDS011;7742;44.320;19.820;2024-01-30T11:48:55;16.40;;;15.40;;
15281;SDS011;7742;44.320;19.820;2024-01-30T11:51:40;16.50;;;15.53;;
15281;SDS011;7742;44.320;19.820;2024-01-30T11:54:50;17.23;;;16.17;;
15281;SDS011;7742;44.320;19.820;2024-01-30T12:00:55;14.53;;;13.73;;
15281;SDS011;7742;44.320;19.820;2024-01-30T12:03:41;15.53;;;14.63;;
15281;SDS011;7742;44.320;19.820;2024-01-30T12:06:24;14.97;;;14.00;;
15281;SDS011;7742;44.320;19.820;2024-01-30T12:09:05;13.97;;;13.17;;
15281;SDS011;7742;44.320;19.820;2024-01-30T12:12:04;14.03;;;13.23;;
15281;SDS011;7742;44.320;19.820;2024-01-30T12:21:00;11.77;;;11.07;;
15281;SDS011;7742;44.320;19.820;2024-01-30T12:23:32;11.20;;;10.40;;
15281;SDS011;7742;44.320;19.820;2024-01-30T12:26:02;13.37;;;12.37;;
15281;SDS011;7742;44.320;19.820;2024-01-30T12:28:33;12.97;;;12.17;;
15281;SDS011;7742;44.320;19.820;2024-01-30T12:31:01;13.60;;;12.80;;
15281;SDS011;7742;44.320;19.820;2024-01-30T12:33:28;12.87;;;12.17;;
15281;SDS011;7742;44.320;19.820;2024-01-30T12:35:55;14.70;;;13.90;;
15281;SDS011;7742;44.320;19.820;2024-01-30T12:38:22;14.17;;;13.27;;
15281;SDS011;7742;44.320;19.820;2024-01-30T12:40:50;14.30;;;13.40;;
15281;SDS011;7742;44.320;19.820;2024-01-30T12:43:20;13.27;;;12.47;;
15281;SDS011;7742;44.320;19.820;2024-01-30T12:45:49;12.60;;;11.87;;
15281;SDS011;7742;44.320;19.820;2024-01-30T12:48:19;13.20;;;12.40;;
15281;SDS011;7742;44.320;19.820;2024-01-30T12:50:45;12.80;;;12.10;;
15281;SDS011;7742;44.320;19.820;2024-01-30T12:53:12;13.60;;;12.80;;
15281;SDS011;7742;44.320;19.820;2024-01-30T12:55:39;13.67;;;12.87;;
15281;SDS011;7742;44.320;19.820;2024-01-30T12:58:06;12.83;;;12.03;;
15281;SDS011;7742;44.320;19.820;2024-01-30T13:00:33;12.90;;;12.03;;
15281;SDS011;7742;44.320;19.820;2024-01-30T13:03:03;12.10;;;11.40;;
15281;SDS011;7742;44.320;19.820;2024-01-30T13:05:30;12.60;;;11.87;;
15281;SDS011;7742;44.320;19.820;2024-01-30T13:07:57;11.90;;;11.20;;
15281;SDS011;7742;44.320;19.820;2024-01-30T13:10:24;11.70;;;10.90;;
15281;SDS011;7742;44.320;19.820;2024-01-30T13:12:51;14.53;;;13.70;;
15281;SDS011;7742;44.320;19.820;2024-01-30T13:15:18;12.87;;;11.93;;
15281;SDS011;7742;44.320;19.820;2024-01-30T13:17:45;11.77;;;11.07;;
15281;SDS011;7742;44.320;19.820;2024-01-30T13:20:14;12.33;;;11.50;;
15281;SDS011;7742;44.320;19.820;2024-01-30T13:22:44;12.07;;;11.37;;
15281;SDS011;7742;44.320;19.820;2024-01-30T13:25:11;12.77;;;12.03;;
15281;SDS011;7742;44.320;19.820;2024-01-30T13:27:38;12.40;;;11.63;;
15281;SDS011;7742;44.320;19.820;2024-01-30T13:30:06;13.13;;;12.27;;
15281;SDS011;7742;44.320;19.820;2024-01-30T13:32:33;13.93;;;13.03;;
15281;SDS011;7742;44.320;19.820;2024-01-30T13:35:00;11.70;;;11.00;;
15281;SDS011;7742;44.320;19.820;2024-01-30T13:37:28;13.77;;;13.00;;
15281;SDS011;7742;44.320;19.820;2024-01-30T13:39:56;13.03;;;12.30;;
15281;SDS011;7742;44.320;19.820;2024-01-30T13:42:23;13.97;;;13.17;;
15281;SDS011;7742;44.320;19.820;2024-01-30T13:44:50;13.53;;;12.73;;
15281;SDS011;7742;44.320;19.820;2024-01-30T13:47:17;11.90;;;11.20;;
15281;SDS011;7742;44.320;19.820;2024-01-30T13:49:44;12.60;;;11.80;;
15281;SDS011;7742;44.320;19.820;2024-01-30T13:52:11;13.00;;;12.20;;
15281;SDS011;7742;44.320;19.820;2024-01-30T13:54:39;13.53;;;12.63;;
15281;SDS011;7742;44.320;19.820;2024-01-30T13:57:06;13.50;;;12.53;;
15281;SDS011;7742;44.320;19.820;2024-01-30T13:59:34;14.07;;;13.17;;
15281;SDS011;7742;44.320;19.820;2024-01-30T14:02:01;13.23;;;12.33;;
15281;SDS011;7742;44.320;19.820;2024-01-30T14:04:28;14.47;;;13.57;;
15281;SDS011;7742;44.320;19.820;2024-01-30T14:06:55;14.03;;;13.23;;
15281;SDS011;7742;44.320;19.820;2024-01-30T14:09:22;13.97;;;13.17;;
15281;SDS011;7742;44.320;19.820;2024-01-30T14:11:50;13.07;;;12.27;;
15281;SDS011;7742;44.320;19.820;2024-01-30T14:14:17;13.43;;;12.63;;
15281;SDS011;7742;44.320;19.820;2024-01-30T14:16:44;13.87;;;13.17;;
15281;SDS011;7742;44.320;19.820;2024-01-30T14:19:11;12.70;;;11.90;;
15281;SDS011;7742;44.320;19.820;2024-01-30T14:21:38;13.67;;;12.87;;
15281;SDS011;7742;44.320;19.820;2024-01-30T14:24:05;15.00;;;14.00;;
15281;SDS011;7742;44.320;19.820;2024-01-30T14:26:32;14.27;;;13.47;;
15281;SDS011;7742;44.320;19.820;2024-01-30T14:29:01;14.20;;;13.30;;
15281;SDS011;7742;44.320;19.820;2024-01-30T14:31:28;14.20;;;13.30;;
15281;SDS011;7742;44.320;19.820;2024-01-30T14:33:55;14.50;;;13.50;;
15281;SDS011;7742;44.320;19.820;2024-01-30T14:36:22;13.07;;;12.23;;
15281;SDS011;7742;44.320;19.820;2024-01-30T14:38:53;15.53;;;14.40;;
15281;SDS011;7742;44.320;19.820;2024-01-30T14:41:20;15.13;;;14.23;;
15281;SDS011;7742;44.320;19.820;2024-01-30T14:43:47;14.43;;;13.43;;
15281;SDS011;7742;44.320;19.820;2024-01-30T14:46:16;14.90;;;14.00;;
15281;SDS011;7742;44.320;19.820;2024-01-30T14:48:43;14.00;;;12.87;;
15281;SDS011;7742;44.320;19.820;2024-01-30T14:51:10;15.53;;;14.63;;
15281;SDS011;7742;44.320;19.820;2024-01-30T14:53:37;13.90;;;13.07;;
15281;SDS011;7742;44.320;19.820;2024-01-30T14:56:04;13.50;;;12.70;;
15281;SDS011;7742;44.320;19.820;2024-01-30T14:58:31;13.40;;;12.60;;
15281;SDS011;7742;44.320;19.820;2024-01-30T15:00:58;14.40;;;13.50;;
15281;SDS011;7742;44.320;19.820;2024-01-30T15:03:28;14.50;;;13.50;;
15281;SDS011;7742;44.320;19.820;2024-01-30T15:05:55;15.43;;;14.60;;
15281;SDS011;7742;44.320;19.820;2024-01-30T15:08:22;14.00;;;13.10;;
15281;SDS011;7742;44.320;19.820;2024-01-30T15:10:49;14.97;;;14.07;;
15281;SDS011;7742;44.320;19.820;2024-01-30T15:13:17;15.67;;;14.67;;
15281;SDS011;7742;44.320;19.820;2024-01-30T15:15:44;13.50;;;12.63;;
15281;SDS011;7742;44.320;19.820;2024-01-30T15:18:11;14.90;;;13.90;;
15281;SDS011;7742;44.320;19.820;2024-01-30T15:20:40;14.67;;;13.70;;
15281;SDS011;7742;44.320;19.820;2024-01-30T15:23:07;15.67;;;14.63;;
15281;SDS011;7742;44.320;19.820;2024-01-30T15:25:34;16.23;;;15.23;;
15281;SDS011;7742;44.320;19.820;2024-01-30T15:28:01;16.20;;;15.10;;
15281;SDS011;7742;44.320;19.820;2024-01-30T15:30:28;15.43;;;14.33;;
15281;SDS011;7742;44.320;19.820;2024-01-30T15:32:54;17.23;;;16.13;;
15281;SDS011;7742;44.320;19.820;2024-01-30T15:35:21;16.67;;;15.57;;
15281;SDS011;7742;44.320;19.820;2024-01-30T15:37:50;14.90;;;14.00;;